createdAt,value
2019-02-14T00:03:06.970Z,83.39
2019-02-14T00:08:09.025Z,83.46
2019-02-14T00:13:10.586Z,83.49
2019-02-14T00:18:12.267Z,83.54
2019-02-14T00:23:13.828Z,83.56
2019-02-14T00:28:15.496Z,83.55
2019-02-14T00:33:17.078Z,83.59
2019-02-14T00:38:19.101Z,83.61
2019-02-14T00:43:20.808Z,83.68
2019-02-14T00:48:22.398Z,83.74
2019-02-14T00:53:24.494Z,83.78
2019-02-14T00:58:26.112Z,83.82
2019-02-14T01:03:27.686Z,83.85
2019-02-14T01:08:29.331Z,83.78
2019-02-14T01:13:31.306Z,83.77
2019-02-14T01:18:32.956Z,83.85
2019-02-14T01:23:34.901Z,83.85
2019-02-14T01:28:36.458Z,83.73
2019-02-14T01:33:38.430Z,83.76
2019-02-14T01:38:40.058Z,83.72
2019-02-14T01:43:41.691Z,83.67
2019-02-14T01:48:43.257Z,83.73
2019-02-14T01:53:44.881Z,83.75
2019-02-14T01:58:46.556Z,83.71
2019-02-14T02:03:48.128Z,83.76
2019-02-14T02:08:49.707Z,83.77
2019-02-14T02:13:51.308Z,83.83
2019-02-14T02:18:53.264Z,83.81
2019-02-14T02:23:54.901Z,83.79
2019-02-14T02:28:56.488Z,83.75
2019-02-14T02:33:58.128Z,83.80
2019-02-14T02:38:59.710Z,83.86
2019-02-14T02:44:01.268Z,83.90
2019-02-14T02:49:02.891Z,84.03
2019-02-14T02:54:04.475Z,84.18
2019-02-14T02:59:06.027Z,84.35
2019-02-14T03:04:07.570Z,84.46
2019-02-14T03:09:09.152Z,84.50
2019-02-14T03:14:10.760Z,84.59
2019-02-14T03:19:12.320Z,84.55
2019-02-14T03:24:13.904Z,84.70
2019-02-14T03:29:15.455Z,84.73
2019-02-14T03:34:17.031Z,84.75
2019-02-14T03:39:18.662Z,84.81
2019-02-14T03:44:20.564Z,84.77
2019-02-14T03:49:22.148Z,84.62
2019-02-14T03:54:23.689Z,84.52
2019-02-14T03:59:25.360Z,84.61
2019-02-14T04:04:26.922Z,84.70
2019-02-14T04:09:28.479Z,84.71
2019-02-14T04:14:30.068Z,84.83
2019-02-14T04:19:31.994Z,84.84
2019-02-14T04:24:33.523Z,84.87
2019-02-14T04:29:35.128Z,84.79
2019-02-14T04:34:36.660Z,84.66
2019-02-14T04:39:38.248Z,84.45
2019-02-14T04:44:39.816Z,84.43
2019-02-14T04:49:42.112Z,84.53
2019-02-14T04:54:43.709Z,84.50
2019-02-14T04:59:45.275Z,84.52
2019-02-14T05:04:47.152Z,84.59
2019-02-14T05:09:48.689Z,84.48
2019-02-14T05:14:50.283Z,84.67
2019-02-14T05:19:52.357Z,84.81
2019-02-14T05:24:54.013Z,84.93
2019-02-14T05:29:55.603Z,84.97
2019-02-14T05:34:57.357Z,85.02
2019-02-14T05:39:58.933Z,85.04
2019-02-14T05:45:00.586Z,85.10
2019-02-14T05:50:02.290Z,85.19
2019-02-14T05:55:04.405Z,85.29
2019-02-14T06:00:07.865Z,85.18
2019-02-14T06:05:09.435Z,85.16
2019-02-14T06:10:11.203Z,85.16
2019-02-14T06:15:12.803Z,85.17
2019-02-14T06:20:14.456Z,85.07
2019-02-14T06:25:16.061Z,85.03
2019-02-14T06:30:17.646Z,84.96
2019-02-14T06:35:19.274Z,84.75
2019-02-14T06:40:20.855Z,85.03
2019-02-14T06:45:22.454Z,84.97
2019-02-14T06:50:24.176Z,84.99
2019-02-14T06:55:25.740Z,85.14
2019-02-14T07:00:27.360Z,85.09
2019-02-14T07:05:28.917Z,85.05
2019-02-14T07:10:30.489Z,85.16
2019-02-14T07:15:32.053Z,85.18
2019-02-14T07:20:33.617Z,85.26
2019-02-14T07:25:35.255Z,85.32
2019-02-14T07:30:36.901Z,85.27
2019-02-14T07:35:38.491Z,85.11
2019-02-14T07:40:40.052Z,85.08
2019-02-14T07:45:41.677Z,84.93
2019-02-14T07:50:43.674Z,84.85
2019-02-14T07:55:45.276Z,84.90
2019-02-14T08:00:46.849Z,84.72
2019-02-14T08:05:48.419Z,84.67
2019-02-14T08:10:50.099Z,84.62
2019-02-14T08:15:51.719Z,84.59
2019-02-14T08:20:53.781Z,84.48
2019-02-14T08:25:55.351Z,84.48
2019-02-14T08:30:57.037Z,84.39
2019-02-14T08:36:00.411Z,84.24
2019-02-14T08:41:02.013Z,83.98
2019-02-14T08:46:03.572Z,83.83
2019-02-14T08:51:05.211Z,83.70
2019-02-14T08:56:06.908Z,83.52
2019-02-14T09:01:08.839Z,83.13
2019-02-14T09:06:10.457Z,83.03
2019-02-14T09:11:12.130Z,82.82
2019-02-14T09:16:14.052Z,82.72
2019-02-14T09:21:15.677Z,82.48
2019-02-14T09:26:17.358Z,82.04
2019-02-14T09:31:19.573Z,81.31
2019-02-14T09:36:21.354Z,80.67
2019-02-14T09:41:23.444Z,79.79
2019-02-14T09:46:26.767Z,79.16
2019-02-14T09:51:28.373Z,78.70
2019-02-14T09:56:30.002Z,77.33
2019-02-14T10:01:31.946Z,76.81
2019-02-14T10:06:36.699Z,77.00
2019-02-14T10:11:37.949Z,76.27
2019-02-14T10:16:39.528Z,75.90
2019-02-14T10:21:41.173Z,74.75
2019-02-14T10:26:42.832Z,73.78
2019-02-14T10:31:44.425Z,73.13
2019-02-14T10:36:46.047Z,71.85
2019-02-14T10:41:47.657Z,70.78
2019-02-14T10:46:49.319Z,69.76
2019-02-14T10:51:50.934Z,69.46
2019-02-14T10:56:52.573Z,69.02
2019-02-14T11:01:54.164Z,68.46
2019-02-14T11:06:56.267Z,67.65
2019-02-14T11:11:57.814Z,67.08
2019-02-14T11:16:59.799Z,66.27
2019-02-14T11:22:01.376Z,65.60
2019-02-14T11:27:02.992Z,64.97
2019-02-14T11:32:04.638Z,65.31
2019-02-14T11:37:06.150Z,64.11
2019-02-14T11:42:07.747Z,64.76
2019-02-14T11:47:09.360Z,64.33
2019-02-14T11:52:11.043Z,64.52
2019-02-14T11:57:13.512Z,64.33
2019-02-14T12:02:15.535Z,63.26
2019-02-14T12:07:17.565Z,63.70
2019-02-14T12:12:20.758Z,63.46
2019-02-14T12:17:22.926Z,62.02
2019-02-14T12:22:24.509Z,62.44
2019-02-14T12:27:26.142Z,61.76
2019-02-14T12:32:27.807Z,62.28
2019-02-14T12:37:29.458Z,61.78
2019-02-14T12:42:31.047Z,61.72
2019-02-14T12:47:32.766Z,61.52
2019-02-14T12:52:34.380Z,62.24
2019-02-14T12:57:37.047Z,60.36
2019-02-14T13:02:38.670Z,61.88
2019-02-14T13:07:40.699Z,61.80
2019-02-14T13:12:42.359Z,61.23
2019-02-14T13:17:43.921Z,62.86
2019-02-14T13:22:46.434Z,62.96
2019-02-14T13:27:48.103Z,63.82
2019-02-14T13:32:49.688Z,62.35
2019-02-14T13:37:51.317Z,62.72
2019-02-14T13:42:52.980Z,62.34
2019-02-14T13:47:54.532Z,61.49
2019-02-14T13:52:57.147Z,59.69
2019-02-14T13:57:58.861Z,59.21
2019-02-14T14:03:00.868Z,60.75
2019-02-14T14:08:02.510Z,61.93
2019-02-14T14:13:04.508Z,65.74
2019-02-14T14:18:06.150Z,64.59
2019-02-14T14:23:07.719Z,60.44
2019-02-14T14:28:09.747Z,67.53
2019-02-14T14:33:11.800Z,68.15
2019-02-14T14:38:13.360Z,69.16
2019-02-14T14:43:14.955Z,70.08
2019-02-14T14:48:19.560Z,70.35
2019-02-14T14:53:20.011Z,68.48
2019-02-14T14:58:21.739Z,65.76
2019-02-14T15:03:23.313Z,67.55
2019-02-14T15:08:24.940Z,69.63
2019-02-14T15:13:26.986Z,71.45
2019-02-14T15:18:28.602Z,72.88
2019-02-14T15:23:30.269Z,70.21
2019-02-14T15:28:31.856Z,67.18
2019-02-14T15:33:33.554Z,68.69
2019-02-14T15:38:37.058Z,69.23
2019-02-14T15:43:38.931Z,67.47
2019-02-14T15:48:41.032Z,64.96
2019-02-14T15:53:44.263Z,69.45
2019-02-14T15:58:46.163Z,73.18
2019-02-14T16:03:47.849Z,72.15
2019-02-14T16:08:49.454Z,66.76
2019-02-14T16:13:52.847Z,69.43
2019-02-14T16:18:54.906Z,69.74
2019-02-14T16:23:56.530Z,64.59
2019-02-14T16:28:59.838Z,70.22
2019-02-14T16:34:01.614Z,70.79
2019-02-14T16:39:04.264Z,64.20
2019-02-14T16:44:05.872Z,66.12
2019-02-14T16:49:07.872Z,69.76
2019-02-14T16:54:09.502Z,71.90
2019-02-14T16:59:11.072Z,70.42
2019-02-14T17:04:13.071Z,63.96
2019-02-14T17:09:14.758Z,62.42
2019-02-14T17:14:16.348Z,55.82
2019-02-14T17:19:18.386Z,59.96
2019-02-14T17:24:19.983Z,59.95
2019-02-14T17:29:21.905Z,61.25
2019-02-14T17:34:23.929Z,60.57
2019-02-14T17:39:25.602Z,61.75
2019-02-14T17:44:27.224Z,62.00
2019-02-14T17:49:28.832Z,62.69
2019-02-14T17:54:30.748Z,63.27
2019-02-14T17:59:33.821Z,65.99
2019-02-14T18:04:35.553Z,65.80
2019-02-14T18:09:37.500Z,65.39
2019-02-14T18:14:39.173Z,65.57
2019-02-14T18:19:41.196Z,65.34
2019-02-14T18:24:42.827Z,66.29
2019-02-14T18:29:44.405Z,66.95
2019-02-14T18:34:46.071Z,66.65
2019-02-14T18:39:47.986Z,67.29
2019-02-14T18:44:49.599Z,67.87
2019-02-14T18:49:51.603Z,68.09
2019-02-14T18:54:53.298Z,67.47
2019-02-14T18:59:55.350Z,68.07
2019-02-14T19:04:57.021Z,68.17
2019-02-14T19:09:59.080Z,68.73
2019-02-14T19:15:00.907Z,68.24
2019-02-14T19:20:02.876Z,67.57
2019-02-14T19:25:04.637Z,67.15
2019-02-14T19:30:06.960Z,67.10
2019-02-14T19:35:08.650Z,67.53
2019-02-14T19:40:10.269Z,68.26
2019-02-14T19:45:12.848Z,69.13
2019-02-14T19:50:14.557Z,69.48
2019-02-14T19:55:16.140Z,69.61
2019-02-14T20:00:18.212Z,70.06
2019-02-14T20:05:19.879Z,69.40
2019-02-14T20:10:21.485Z,69.18
2019-02-14T20:15:23.117Z,69.91
2019-02-14T20:20:24.837Z,70.20
2019-02-14T20:25:26.973Z,70.03
2019-02-14T20:30:28.548Z,70.75
2019-02-14T20:35:30.609Z,70.59
2019-02-14T20:40:32.275Z,70.73
2019-02-14T20:45:35.532Z,70.73
2019-02-14T20:50:37.223Z,70.31
2019-02-14T20:55:38.975Z,70.04
2019-02-14T21:00:40.951Z,70.03
2019-02-14T21:05:42.503Z,70.78
2019-02-14T21:10:44.869Z,71.39
2019-02-14T21:15:46.606Z,71.21
2019-02-14T21:20:48.228Z,71.69
2019-02-14T21:25:49.937Z,71.76
2019-02-14T21:30:51.949Z,71.88
2019-02-14T21:35:53.571Z,72.00
2019-02-14T21:40:55.174Z,72.16
2019-02-14T21:45:57.660Z,72.24
2019-02-14T21:50:59.419Z,72.31
2019-02-14T21:56:01.393Z,72.50
2019-02-14T22:01:03.014Z,72.69
2019-02-14T22:06:05.733Z,72.97
2019-02-14T22:11:07.413Z,73.17
2019-02-14T22:16:08.994Z,73.38
2019-02-14T22:21:10.615Z,73.47
2019-02-14T22:26:12.191Z,73.56
2019-02-14T22:31:13.780Z,73.67
2019-02-14T22:36:15.408Z,73.83
2019-02-14T22:41:16.985Z,73.95
2019-02-14T22:46:18.606Z,73.99
2019-02-14T22:51:20.217Z,74.15
2019-02-14T22:56:22.489Z,74.07
2019-02-14T23:01:24.216Z,74.22
2019-02-14T23:06:25.880Z,74.21
2019-02-14T23:11:27.518Z,74.28
2019-02-14T23:16:29.147Z,74.66
2019-02-14T23:21:30.715Z,74.57
2019-02-14T23:26:32.368Z,74.65
2019-02-14T23:31:34.352Z,74.86
2019-02-14T23:36:35.929Z,75.01
2019-02-14T23:41:37.469Z,75.06
2019-02-14T23:46:39.078Z,75.11
2019-02-14T23:51:41.148Z,75.69
2019-02-14T23:56:42.708Z,76.09
